Time;durP1;ratioP1;P1;durP2;ratioP2;P2;SDS_P1;SDS_P2;PMS_P1;PMS_P2;Temp;Humidity;BMP_temperature;BMP_pressure;BME280_temperature;BME280_humidity;BME280_pressure;Samples;Min_cycle;Max_cycle;Signal;HPM_P1;HPM_P2
2023/01/24 00:00:27;;;;;;;4.53;2.38;;;19.70;55.40;;;;;;5051348;28;20052;-58
2023/01/24 00:02:53;;;;;;;4.47;2.00;;;19.70;55.40;;;;;;5052166;28;20052;-58
2023/01/24 00:05:19;;;;;;;3.92;2.08;;;19.60;55.30;;;;;;5052811;28;20037;-58
2023/01/24 00:07:44;;;;;;;2.47;1.95;;;19.60;55.30;;;;;;5053022;28;20123;-58
2023/01/24 00:10:10;;;;;;;6.15;2.75;;;19.60;55.30;;;;;;5052035;28;20059;-58
2023/01/24 00:12:36;;;;;;;3.35;1.88;;;19.60;55.30;;;;;;5052660;28;20063;-58
2023/01/24 00:15:02;;;;;;;4.00;2.03;;;19.60;55.30;;;;;;5052333;28;20056;-58
2023/01/24 00:17:27;;;;;;;4.15;1.90;;;19.60;55.30;;;;;;5056951;28;20032;-58
2023/01/24 00:19:53;;;;;;;5.82;2.28;;;19.60;55.30;;;;;;5072671;28;20037;-58
2023/01/24 00:22:18;;;;;;;3.90;2.20;;;19.60;55.30;;;;;;5068180;28;20155;-58
2023/01/24 00:24:44;;;;;;;6.80;2.60;;;19.60;55.30;;;;;;5051682;28;20075;-58
2023/01/24 00:27:09;;;;;;;6.05;2.25;;;19.50;55.20;;;;;;5051118;28;20080;-58
2023/01/24 00:29:35;;;;;;;3.92;2.20;;;19.50;55.20;;;;;;5052686;28;20396;-58
2023/01/24 00:32:00;;;;;;;3.97;2.28;;;19.50;55.20;;;;;;5049550;28;20135;-58
2023/01/24 00:34:26;;;;;;;4.03;2.10;;;19.50;55.20;;;;;;5048353;28;20076;-58
2023/01/24 00:36:51;;;;;;;3.75;2.20;;;19.50;55.20;;;;;;5029967;28;20048;-58
2023/01/24 00:39:17;;;;;;;3.08;1.80;;;19.50;55.20;;;;;;5032200;28;20049;-58
2023/01/24 00:41:43;;;;;;;3.42;2.00;;;19.50;55.20;;;;;;5032023;28;20038;-58
2023/01/24 00:44:08;;;;;;;2.83;1.88;;;19.50;55.20;;;;;;5031201;28;20073;-58
2023/01/24 00:46:34;;;;;;;3.33;1.90;;;19.40;55.10;;;;;;5032588;28;20033;-58
2023/01/24 00:49:00;;;;;;;3.22;1.80;;;19.40;55.10;;;;;;5032463;28;20049;-58
2023/01/24 00:51:25;;;;;;;4.53;2.15;;;19.40;55.20;;;;;;5033988;28;20055;-58
2023/01/24 00:53:51;;;;;;;3.15;2.13;;;19.40;55.20;;;;;;5052238;28;20041;-58
2023/01/24 00:56:16;;;;;;;3.28;2.05;;;19.40;55.10;;;;;;5050130;28;20087;-58
2023/01/24 00:58:42;;;;;;;3.70;2.35;;;19.40;55.10;;;;;;5051395;28;20488;-58
2023/01/24 01:01:07;;;;;;;3.90;2.28;;;19.40;55.20;;;;;;5052153;28;20111;-58
2023/01/24 01:03:33;;;;;;;3.45;2.03;;;19.40;55.10;;;;;;5051655;28;20041;-58
2023/01/24 01:06:04;;;;;;;4.38;2.08;;;19.40;55.20;;;;;;5051267;28;20041;-58
2023/01/24 01:08:30;;;;;;;3.70;2.10;;;19.30;55.10;;;;;;5050945;28;20504;-58
2023/01/24 01:10:56;;;;;;;4.00;2.25;;;19.30;55.10;;;;;;5051957;28;20125;-58
2023/01/24 01:13:21;;;;;;;3.42;1.90;;;19.30;55.10;;;;;;5050802;28;20489;-58
2023/01/24 01:15:47;;;;;;;4.97;2.28;;;19.30;55.10;;;;;;5051843;28;20049;-58
2023/01/24 01:18:12;;;;;;;3.50;2.10;;;19.30;55.10;;;;;;5050392;28;20505;-58
2023/01/24 01:20:38;;;;;;;2.88;1.95;;;19.30;55.10;;;;;;5050498;28;20069;-58
2023/01/24 01:23:03;;;;;;;3.25;2.15;;;19.30;55.10;;;;;;5052126;28;20129;-58
2023/01/24 01:25:29;;;;;;;4.00;1.80;;;19.30;55.10;;;;;;5051523;28;20072;-58
2023/01/24 01:27:55;;;;;;;3.28;1.83;;;19.30;55.10;;;;;;5051346;28;20041;-58
2023/01/24 01:30:20;;;;;;;2.88;1.92;;;19.30;55.10;;;;;;5051305;28;20489;-58
2023/01/24 01:32:46;;;;;;;3.17;2.17;;;19.30;55.20;;;;;;5050800;28;20037;-58
2023/01/24 01:35:12;;;;;;;3.78;2.22;;;19.20;55.10;;;;;;5049488;28;20051;-58
2023/01/24 01:37:37;;;;;;;4.38;2.10;;;19.20;55.10;;;;;;5051858;28;20036;-58
2023/01/24 01:40:03;;;;;;;3.83;2.05;;;19.20;55.10;;;;;;5048864;28;20049;-58
2023/01/24 01:42:47;;;;;;;3.83;1.92;;;19.20;55.10;;;;;;5051472;28;20140;-58
2023/01/24 01:45:41;;;;;;;3.22;2.00;;;19.20;55.10;;;;;;5050268;28;20041;-58
2023/01/24 01:48:19;;;;;;;4.45;2.47;;;19.20;55.10;;;;;;5049769;28;20408;-58
2023/01/24 01:50:51;;;;;;;3.75;2.20;;;19.20;55.20;;;;;;5050607;28;20121;-58
2023/01/24 01:53:17;;;;;;;3.65;2.10;;;19.20;55.20;;;;;;5049666;28;20041;-57
2023/01/24 01:55:45;;;;;;;4.13;2.10;;;19.10;55.10;;;;;;5058290;28;20047;-58
2023/01/24 01:58:10;;;;;;;4.88;2.03;;;19.10;55.10;;;;;;5073980;28;20071;-58
2023/01/24 02:00:36;;;;;;;3.40;2.10;;;19.10;55.10;;;;;;5061490;28;20493;-58
2023/01/24 02:05:48;;;;;;;3.58;2.15;;;19.10;55.20;;;;;;5074508;28;20084;-58
2023/01/24 02:08:16;;;;;;;2.75;1.90;;;19.10;55.10;;;;;;5072845;28;20156;-58
2023/01/24 02:13:26;;;;;;;2.75;1.85;;;19.10;55.10;;;;;;5047671;28;20045;-58
2023/01/24 02:16:04;;;;;;;3.17;2.05;;;19.10;55.10;;;;;;5052921;28;20056;-58
2023/01/24 02:18:40;;;;;;;4.25;2.55;;;19.10;55.10;;;;;;5053507;28;20055;-58
2023/01/24 02:21:15;;;;;;;4.05;2.30;;;19.10;55.10;;;;;;5054175;28;20131;-58
2023/01/24 02:23:56;;;;;;;3.58;1.92;;;19.00;55.10;;;;;;5052876;28;20086;-58
2023/01/24 02:26:22;;;;;;;5.13;2.40;;;19.00;55.10;;;;;;5053440;28;20049;-58
2023/01/24 02:28:58;;;;;;;3.70;2.30;;;19.00;55.10;;;;;;5054845;28;20056;-58
2023/01/24 02:31:23;;;;;;;3.33;1.95;;;19.00;55.10;;;;;;5053615;28;20500;-58
2023/01/24 02:33:49;;;;;;;3.03;2.08;;;19.00;55.10;;;;;;5054767;28;20048;-58
2023/01/24 02:36:40;;;;;;;3.90;2.20;;;19.00;55.00;;;;;;5053420;28;20400;-58
2023/01/24 02:39:12;;;;;;;4.60;2.00;;;19.10;55.00;;;;;;5038325;28;20041;-58
2023/01/24 02:41:56;;;;;;;3.30;2.22;;;19.00;55.00;;;;;;5052404;28;20040;-58
2023/01/24 02:44:47;;;;;;;4.45;2.40;;;19.00;54.90;;;;;;5053530;28;20045;-58
2023/01/24 02:47:12;;;;;;;4.40;2.40;;;19.00;54.90;;;;;;5052991;28;20052;-58
2023/01/24 02:49:38;;;;;;;4.47;2.03;;;19.00;54.90;;;;;;5053933;28;20041;-58
2023/01/24 02:54:48;;;;;;;3.50;1.98;;;19.00;54.90;;;;;;5052973;28;20045;-58
2023/01/24 02:59:57;;;;;;;3.65;2.28;;;19.10;55.00;;;;;;5054046;28;20493;-58
2023/01/24 03:02:23;;;;;;;3.90;2.30;;;19.10;54.90;;;;;;5053717;28;20072;-58
2023/01/24 03:04:48;;;;;;;4.30;2.17;;;19.10;54.90;;;;;;5051738;28;20500;-58
2023/01/24 03:07:14;;;;;;;3.78;2.50;;;19.00;54.80;;;;;;5051846;28;20036;-57
2023/01/24 03:09:46;;;;;;;4.50;2.40;;;19.10;54.90;;;;;;5053622;28;20409;-58
2023/01/24 03:36:54;;;;;;;2.92;2.05;;;19.00;54.60;;;;;;5051705;28;20049;-57
2023/01/24 03:42:04;;;;;;;3.03;2.35;;;19.10;54.60;;;;;;5051477;28;20045;-57
2023/01/24 03:44:30;;;;;;;3.50;2.17;;;19.10;54.70;;;;;;5053587;28;20049;-57
2023/01/24 03:46:55;;;;;;;3.30;2.30;;;19.10;54.60;;;;;;5050870;28;20037;-58
2023/01/24 03:54:49;;;;;;;3.63;2.40;;;19.10;54.60;;;;;;5051987;28;20405;-57
2023/01/24 03:57:14;;;;;;;3.85;2.60;;;19.10;54.50;;;;;;5053318;28;20498;-58
2023/01/24 03:59:40;;;;;;;3.25;2.03;;;19.10;54.60;;;;;;5052319;28;20049;-58
2023/01/24 04:02:05;;;;;;;4.03;2.10;;;19.10;54.50;;;;;;5051871;28;20049;-58
2023/01/24 04:05:12;;;;;;;4.30;2.60;;;19.10;54.60;;;;;;5059030;28;20048;-58
2023/01/24 04:07:16;;;;;;;3.60;2.00;;;19.10;54.50;;;;;;5052837;28;20045;-58
2023/01/24 04:09:42;;;;;;;3.08;2.00;;;19.10;54.50;;;;;;5051923;28;20041;-58
2023/01/24 04:12:08;;;;;;;3.22;2.10;;;19.20;54.50;;;;;;5052278;28;20044;-58
2023/01/24 04:14:33;;;;;;;2.97;1.88;;;19.20;54.50;;;;;;5052636;28;20045;-58
2023/01/24 04:16:59;;;;;;;3.55;2.13;;;19.20;54.50;;;;;;5050798;28;20485;-58
2023/01/24 04:19:24;;;;;;;3.53;2.30;;;19.20;54.40;;;;;;5051499;28;20053;-58
2023/01/24 04:21:50;;;;;;;3.13;1.90;;;19.20;54.40;;;;;;5051098;28;20041;-58
2023/01/24 04:24:15;;;;;;;3.53;2.40;;;19.20;54.40;;;;;;5052928;28;20542;-58
2023/01/24 04:26:41;;;;;;;3.35;2.17;;;19.20;54.40;;;;;;5072329;28;20043;-58
2023/01/24 04:29:06;;;;;;;3.80;2.28;;;19.20;54.40;;;;;;5071238;28;20036;-58
2023/01/24 04:31:32;;;;;;;2.95;1.98;;;19.30;54.40;;;;;;5072678;28;20052;-57
2023/01/24 04:33:57;;;;;;;3.50;2.22;;;19.30;54.40;;;;;;5070545;28;20508;-58
2023/01/24 04:36:23;;;;;;;3.28;2.40;;;19.30;54.40;;;;;;5051375;28;20049;-58
2023/01/24 04:38:48;;;;;;;2.75;1.77;;;19.30;54.30;;;;;;5050630;28;20040;-58
2023/01/24 04:41:14;;;;;;;3.58;1.92;;;19.30;54.40;;;;;;5032786;28;20055;-58
2023/01/24 04:43:40;;;;;;;3.22;2.13;;;19.30;54.30;;;;;;5051739;28;20400;-58
2023/01/24 04:46:06;;;;;;;2.97;1.92;;;19.30;54.30;;;;;;5071948;28;20041;-58
2023/01/24 04:48:31;;;;;;;3.05;1.80;;;19.30;54.30;;;;;;5072144;28;20389;-58
2023/01/24 04:50:59;;;;;;;2.65;1.90;;;19.30;54.30;;;;;;5071080;28;20123;-58
2023/01/24 04:53:24;;;;;;;3.28;2.30;;;19.30;54.20;;;;;;5072276;28;20040;-58
2023/01/24 04:55:50;;;;;;;3.20;1.90;;;19.30;54.20;;;;;;5071982;28;20036;-58
2023/01/24 04:58:15;;;;;;;3.00;1.70;;;19.40;54.20;;;;;;5070232;28;20041;-58
2023/01/24 05:00:41;;;;;;;3.30;2.00;;;19.40;54.20;;;;;;5065510;28;20163;-58
2023/01/24 05:03:06;;;;;;;2.40;1.52;;;19.40;54.10;;;;;;5051560;28;20068;-58
2023/01/24 05:05:32;;;;;;;3.22;2.10;;;19.40;54.20;;;;;;5049915;28;20044;-58
2023/01/24 05:07:57;;;;;;;2.70;1.85;;;19.40;54.10;;;;;;5051589;28;20037;-58
2023/01/24 05:10:24;;;;;;;2.90;2.00;;;19.40;54.10;;;;;;5052132;28;20475;-58
2023/01/24 05:12:49;;;;;;;2.38;1.60;;;19.40;54.10;;;;;;5051084;28;20037;-58
2023/01/24 05:15:15;;;;;;;3.33;2.17;;;19.40;54.00;;;;;;5051674;28;20076;-58
2023/01/24 05:17:44;;;;;;;2.85;1.95;;;19.50;54.10;;;;;;5052276;28;20041;-58
2023/01/24 05:20:10;;;;;;;3.20;2.28;;;19.50;54.00;;;;;;5049496;28;20037;-58
2023/01/24 05:22:35;;;;;;;3.45;1.95;;;19.50;54.00;;;;;;5051951;28;20122;-57
2023/01/24 05:25:01;;;;;;;3.03;1.65;;;19.50;54.00;;;;;;5051287;28;20392;-57
2023/01/24 05:27:26;;;;;;;3.55;1.95;;;19.50;53.90;;;;;;5050090;28;20546;-58
2023/01/24 05:29:52;;;;;;;3.58;1.95;;;19.50;53.90;;;;;;5054285;28;20136;-57
2023/01/24 05:32:18;;;;;;;4.00;2.35;;;19.50;53.80;;;;;;5055290;28;20041;-57
2023/01/24 05:34:43;;;;;;;2.78;1.98;;;19.50;53.80;;;;;;5055527;28;20124;-58
2023/01/24 05:37:09;;;;;;;3.25;2.05;;;19.50;53.80;;;;;;5054354;28;20078;-58
2023/01/24 05:39:34;;;;;;;4.15;2.10;;;19.50;53.80;;;;;;5054816;28;20454;-58
2023/01/24 05:42:00;;;;;;;3.78;2.40;;;19.60;53.80;;;;;;5055161;28;20040;-58
2023/01/24 05:44:25;;;;;;;3.17;1.90;;;19.60;53.70;;;;;;5054971;28;20131;-58
2023/01/24 05:46:51;;;;;;;3.50;1.90;;;19.60;53.70;;;;;;5051632;28;20045;-58
2023/01/24 05:49:16;;;;;;;3.42;2.00;;;19.60;53.70;;;;;;5055517;28;20040;-58
2023/01/24 05:51:42;;;;;;;4.03;2.28;;;19.60;53.70;;;;;;5054236;28;20144;-58
2023/01/24 05:54:07;;;;;;;2.47;1.70;;;19.60;53.70;;;;;;5054487;28;20504;-58
2023/01/24 05:56:33;;;;;;;3.67;2.10;;;19.60;53.60;;;;;;5055528;28;20393;-58
2023/01/24 05:59:01;;;;;;;3.25;1.80;;;19.60;53.60;;;;;;5055283;28;20059;-58
2023/01/24 06:01:27;;;;;;;3.05;2.13;;;19.60;53.60;;;;;;5053731;28;20049;-58
2023/01/24 06:03:52;;;;;;;2.95;1.92;;;19.60;53.50;;;;;;5055161;28;20435;-58
2023/01/24 06:06:19;;;;;;;3.50;1.85;;;19.70;53.60;;;;;;5054950;28;20041;-58
2023/01/24 06:08:45;;;;;;;2.88;1.70;;;19.70;53.60;;;;;;5052898;28;20103;-58
2023/01/24 06:11:14;;;;;;;2.70;1.60;;;19.70;53.50;;;;;;5054864;28;20049;-58
2023/01/24 06:13:40;;;;;;;2.80;1.70;;;19.70;53.40;;;;;;5053933;28;20045;-58
2023/01/24 06:16:11;;;;;;;2.30;1.63;;;19.70;53.40;;;;;;5051277;28;20538;-58
2023/01/24 06:18:36;;;;;;;2.78;1.83;;;19.70;53.30;;;;;;5054659;28;20076;-58
2023/01/24 06:21:06;;;;;;;2.70;2.00;;;19.70;53.30;;;;;;5054249;28;20166;-58
2023/01/24 06:23:32;;;;;;;3.50;1.75;;;19.70;53.30;;;;;;5052096;28;20037;-57
2023/01/24 06:25:58;;;;;;;3.25;1.83;;;19.70;53.30;;;;;;5047400;28;20059;-58
2023/01/24 06:28:24;;;;;;;2.65;1.67;;;19.80;53.30;;;;;;5054286;28;20037;-58
2023/01/24 06:30:59;;;;;;;3.20;1.95;;;19.80;53.40;;;;;;5053505;28;20168;-58
2023/01/24 06:33:48;;;;;;;2.45;1.88;;;19.80;53.40;;;;;;5053730;28;20048;-58
2023/01/24 06:36:42;;;;;;;2.38;1.67;;;19.80;53.30;;;;;;5053141;28;20045;-58
2023/01/24 06:39:14;;;;;;;2.90;1.90;;;19.80;53.30;;;;;;5053385;28;20051;-58
2023/01/24 06:41:39;;;;;;;2.83;1.73;;;19.70;53.20;;;;;;5051890;28;20104;-58
2023/01/24 06:44:07;;;;;;;2.85;1.95;;;19.70;53.20;;;;;;5053466;28;20572;-58
2023/01/24 06:46:32;;;;;;;2.95;1.75;;;19.80;53.20;;;;;;5054515;28;20044;-58
2023/01/24 06:48:58;;;;;;;3.15;1.83;;;19.80;53.20;;;;;;5054023;28;20044;-58
2023/01/24 06:51:23;;;;;;;3.08;1.88;;;19.80;53.10;;;;;;5053337;28;20120;-58
2023/01/24 06:53:49;;;;;;;2.38;1.70;;;19.80;53.10;;;;;;5054209;28;20078;-57
2023/01/24 06:56:14;;;;;;;3.58;2.25;;;19.80;53.10;;;;;;5054399;28;20041;-58
2023/01/24 06:58:40;;;;;;;3.22;1.63;;;19.90;53.10;;;;;;5053145;28;20037;-58
2023/01/24 07:01:05;;;;;;;2.70;1.50;;;19.90;53.10;;;;;;5053868;28;20044;-57
2023/01/24 07:03:31;;;;;;;3.28;1.98;;;19.90;53.00;;;;;;5053759;28;20377;-58
2023/01/24 07:05:57;;;;;;;3.55;1.98;;;19.80;52.90;;;;;;5051963;28;20091;-57
2023/01/24 07:08:22;;;;;;;2.55;1.70;;;19.80;53.00;;;;;;5053856;28;20060;-58
2023/01/24 07:10:48;;;;;;;2.90;1.70;;;19.90;53.00;;;;;;5052318;28;20508;-57
2023/01/24 07:13:13;;;;;;;6.03;2.00;;;19.90;53.00;;;;;;5054092;28;20124;-58
2023/01/24 07:15:39;;;;;;;3.85;1.80;;;19.90;53.00;;;;;;5054125;28;20496;-58
2023/01/24 07:18:06;;;;;;;5.60;2.10;;;19.90;53.00;;;;;;5051883;28;20431;-58
2023/01/24 07:20:32;;;;;;;3.50;1.67;;;19.90;53.00;;;;;;5054170;28;20037;-58
2023/01/24 07:22:58;;;;;;;4.95;1.70;;;19.90;53.00;;;;;;5052228;28;20142;-58
2023/01/24 07:25:24;;;;;;;3.65;1.73;;;19.90;53.00;;;;;;5053191;28;20098;-57
2023/01/24 07:27:50;;;;;;;4.45;2.20;;;19.90;53.10;;;;;;5052166;28;20041;-58
2023/01/24 07:30:15;;;;;;;4.22;2.17;;;19.90;53.10;;;;;;5053729;28;20051;-58
2023/01/24 07:32:41;;;;;;;5.25;1.80;;;19.90;53.20;;;;;;5053171;28;20051;-58
2023/01/24 07:35:07;;;;;;;4.40;1.80;;;19.90;53.20;;;;;;5053451;28;20041;-58
2023/01/24 07:37:33;;;;;;;3.20;1.58;;;19.90;53.20;;;;;;5053188;28;20102;-58
2023/01/24 07:39:58;;;;;;;7.82;2.25;;;19.90;53.20;;;;;;5050732;28;20041;-58
2023/01/24 07:42:24;;;;;;;3.45;1.80;;;19.90;53.20;;;;;;5052848;28;20485;-57
2023/01/24 07:44:50;;;;;;;2.42;1.60;;;19.90;53.20;;;;;;5052554;28;20041;-57
2023/01/24 07:47:15;;;;;;;7.13;2.10;;;19.90;53.40;;;;;;5052342;28;20041;-57
2023/01/24 07:49:41;;;;;;;5.15;1.73;;;19.90;53.40;;;;;;5052674;28;20041;-57
2023/01/24 07:52:06;;;;;;;6.22;2.08;;;20.00;53.50;;;;;;5052176;28;20112;-57
2023/01/24 07:54:33;;;;;;;3.28;2.00;;;20.00;53.50;;;;;;5051763;28;20045;-57
2023/01/24 07:56:59;;;;;;;3.45;2.03;;;20.00;53.60;;;;;;5062948;28;20124;-58
2023/01/24 07:59:25;;;;;;;6.75;2.20;;;20.00;53.70;;;;;;5052498;28;20132;-57
2023/01/24 08:01:50;;;;;;;3.53;1.80;;;20.00;53.70;;;;;;5052004;28;20087;-58
2023/01/24 08:04:16;;;;;;;6.68;2.30;;;20.00;53.70;;;;;;5049877;28;20049;-56
2023/01/24 08:07:16;;;;;;;3.47;1.77;;;20.00;53.80;;;;;;5032347;28;20037;-57
2023/01/24 08:09:27;;;;;;;3.58;2.13;;;20.00;53.90;;;;;;5049525;28;20056;-56
2023/01/24 08:11:53;;;;;;;4.82;1.92;;;20.00;54.10;;;;;;5033365;28;20042;-57
2023/01/24 08:14:18;;;;;;;4.38;2.45;;;20.00;54.10;;;;;;5041249;28;20045;-56
2023/01/24 08:16:44;;;;;;;5.63;2.10;;;20.10;54.30;;;;;;5050261;28;20049;-57
2023/01/24 08:19:09;;;;;;;3.42;2.08;;;20.10;54.40;;;;;;5052102;28;20369;-57
2023/01/24 08:21:35;;;;;;;3.85;1.92;;;20.10;54.50;;;;;;5051011;28;20045;-57
2023/01/24 08:24:00;;;;;;;3.85;2.15;;;20.10;54.50;;;;;;5052034;28;20102;-57
2023/01/24 08:26:26;;;;;;;4.28;2.08;;;20.10;54.60;;;;;;5064289;28;20101;-56
2023/01/24 08:28:52;;;;;;;5.78;2.28;;;20.10;54.70;;;;;;5050974;28;20324;-56
2023/01/24 08:31:17;;;;;;;4.90;2.10;;;20.10;54.80;;;;;;5052216;28;20033;-56
2023/01/24 08:33:43;;;;;;;4.78;1.50;;;20.10;54.80;;;;;;5051892;28;20040;-56
2023/01/24 08:36:08;;;;;;;3.17;1.98;;;20.10;54.80;;;;;;5050475;28;20040;-56
2023/01/24 08:38:34;;;;;;;5.70;2.35;;;20.10;54.80;;;;;;5051785;28;20509;-57
2023/01/24 08:41:03;;;;;;;2.38;1.60;;;20.10;54.80;;;;;;5051575;28;20045;-57
2023/01/24 08:43:28;;;;;;;5.25;1.95;;;20.20;54.90;;;;;;5050926;28;20484;-58
2023/01/24 08:45:55;;;;;;;3.78;2.10;;;20.10;54.90;;;;;;5051560;28;20048;-57
2023/01/24 08:48:20;;;;;;;3.85;1.98;;;20.20;54.80;;;;;;5050478;28;20038;-57
2023/01/24 08:50:46;;;;;;;3.45;1.90;;;20.20;54.80;;;;;;5050508;28;20052;-58
2023/01/24 08:53:12;;;;;;;4.47;1.88;;;20.20;54.80;;;;;;5049511;28;20481;-57
2023/01/24 08:55:37;;;;;;;3.00;2.08;;;20.20;54.80;;;;;;5051719;28;20053;-57
2023/01/24 08:58:03;;;;;;;2.67;1.77;;;20.20;54.70;;;;;;5065737;28;20040;-57
2023/01/24 09:00:29;;;;;;;4.53;2.03;;;20.20;54.70;;;;;;5051474;28;20040;-57
2023/01/24 09:02:58;;;;;;;3.40;2.10;;;20.20;54.70;;;;;;5050637;28;20041;-56
2023/01/24 09:05:24;;;;;;;4.65;2.05;;;20.20;54.60;;;;;;5054577;28;20523;-57
2023/01/24 09:07:49;;;;;;;5.07;2.10;;;20.20;54.70;;;;;;5038501;28;20045;-57
2023/01/24 09:10:15;;;;;;;3.03;1.83;;;20.20;54.80;;;;;;5070336;28;20099;-57
2023/01/24 09:12:41;;;;;;;3.47;2.10;;;20.20;54.70;;;;;;5055695;28;20037;-57
2023/01/24 09:15:07;;;;;;;3.42;2.00;;;20.20;54.60;;;;;;5055112;28;20057;-59
2023/01/24 09:17:34;;;;;;;3.13;1.88;;;20.20;54.60;;;;;;5054354;28;20116;-58
2023/01/24 09:19:59;;;;;;;3.15;1.70;;;20.20;54.50;;;;;;5054728;28;20040;-58
2023/01/24 09:22:26;;;;;;;3.55;2.10;;;20.20;54.40;;;;;;5055134;28;20094;-57
2023/01/24 09:24:52;;;;;;;4.20;1.98;;;20.20;54.40;;;;;;5054241;28;20139;-57
2023/01/24 09:27:17;;;;;;;4.57;2.13;;;20.10;54.30;;;;;;5055421;28;20125;-56
2023/01/24 09:29:43;;;;;;;3.55;2.08;;;20.20;54.50;;;;;;5055575;28;20080;-57
2023/01/24 09:32:08;;;;;;;3.33;1.67;;;20.10;54.60;;;;;;5053862;28;20033;-57
2023/01/24 09:34:34;;;;;;;3.72;2.00;;;20.20;54.60;;;;;;5055132;28;20102;-57
2023/01/24 09:37:00;;;;;;;5.53;2.28;;;20.10;54.70;;;;;;5070126;28;20041;-59
2023/01/24 09:39:25;;;;;;;6.07;2.00;;;20.20;54.80;;;;;;5052402;28;20048;-57
2023/01/24 09:41:54;;;;;;;4.20;1.95;;;20.20;54.60;;;;;;5054201;28;20064;-57
2023/01/24 09:44:31;;;;;;;;;;;20.20;54.50;;;;;;5041851;28;20049;-57
2023/01/24 09:46:57;;;;;;;4.00;1.77;;;20.20;54.70;;;;;;5052285;28;20007;-57
2023/01/24 09:49:36;;;;;;;4.13;1.83;;;20.10;54.60;;;;;;5036177;28;20139;-58
2023/01/24 09:52:02;;;;;;;5.10;2.42;;;20.20;54.80;;;;;;5045724;28;20056;-58
2023/01/24 09:54:37;;;;;;;4.03;1.70;;;20.20;54.60;;;;;;5052159;28;20037;-57
2023/01/24 09:57:13;;;;;;;3.47;1.80;;;20.20;54.60;;;;;;5049901;28;20052;-57
2023/01/24 09:59:39;;;;;;;4.05;2.10;;;20.20;54.60;;;;;;5044493;28;20923;-57
2023/01/24 10:02:17;;;;;;;5.72;2.20;;;20.20;54.60;;;;;;5037845;28;20080;-57
2023/01/24 10:04:43;;;;;;;4.40;1.95;;;20.20;54.60;;;;;;5034093;28;20413;-57
2023/01/24 10:07:15;;;;;;;4.95;2.10;;;20.10;54.50;;;;;;5053787;28;20037;-58
2023/01/24 10:10:11;;;;;;;3.95;1.70;;;20.10;54.50;;;;;;5049182;28;20565;-57
2023/01/24 10:13:03;;;;;;;4.05;2.10;;;20.10;54.30;;;;;;5035892;28;20073;-57
2023/01/24 10:15:41;;;;;;;3.97;1.98;;;20.10;54.30;;;;;;5052169;28;20061;-57
2023/01/24 10:18:34;;;;;;;3.80;2.08;;;20.10;54.20;;;;;;5040811;28;20127;-58
2023/01/24 10:21:24;;;;;;;3.70;2.00;;;20.10;54.20;;;;;;5052190;28;20107;-57
2023/01/24 10:23:55;;;;;;;3.10;1.80;;;20.10;54.20;;;;;;5055735;28;20049;-57
2023/01/24 10:26:24;;;;;;;5.10;2.03;;;20.10;54.10;;;;;;5054337;28;20512;-58
2023/01/24 10:28:52;;;;;;;5.30;2.35;;;20.10;54.10;;;;;;5053214;28;20074;-60
2023/01/24 10:31:31;;;;;;;6.78;2.25;;;20.10;54.30;;;;;;5054125;28;20045;-58
2023/01/24 10:33:59;;;;;;;5.72;2.10;;;20.10;54.10;;;;;;5042586;28;20405;-59
2023/01/24 10:36:52;;;;;;;5.13;2.13;;;20.00;54.10;;;;;;5032102;28;20084;-57
2023/01/24 10:39:17;;;;;;;4.25;2.35;;;20.00;54.10;;;;;;5030194;28;20504;-57
2023/01/24 10:41:43;;;;;;;5.97;2.78;;;20.00;54.10;;;;;;5050284;28;20045;-57
2023/01/24 10:44:19;;;;;;;5.20;2.30;;;20.00;54.10;;;;;;5053555;28;20386;-57
2023/01/24 10:46:59;;;;;;;5.15;2.50;;;20.00;54.10;;;;;;5053503;28;20036;-58
2023/01/24 10:49:27;;;;;;;5.65;2.17;;;20.00;54.10;;;;;;5051670;28;20500;-59
2023/01/24 10:52:11;;;;;;;;;;;20.00;54.20;;;;;;5052608;28;20033;-59
2023/01/24 10:54:48;;;;;;;3.30;2.17;;;20.00;54.10;;;;;;5053699;28;19921;-58
2023/01/24 10:57:17;;;;;;;7.82;2.70;;;20.00;54.20;;;;;;5052892;28;20496;-58
2023/01/24 10:59:42;;;;;;;4.30;2.13;;;20.00;54.20;;;;;;5052021;28;20048;-59
2023/01/24 11:02:22;;;;;;;4.15;2.08;;;20.00;54.30;;;;;;5051732;28;20041;-58
2023/01/24 11:04:52;;;;;;;5.03;2.15;;;20.00;54.20;;;;;;5052492;28;20055;-58
2023/01/24 11:07:40;;;;;;;3.47;2.00;;;20.00;54.30;;;;;;5052435;28;20053;-59
2023/01/24 11:10:18;;;;;;;6.22;2.38;;;20.00;54.40;;;;;;5052407;28;20041;-58
2023/01/24 11:12:50;;;;;;;4.80;2.20;;;20.00;54.40;;;;;;5039132;28;20040;-58
2023/01/24 11:15:30;;;;;;;5.75;2.30;;;20.00;54.30;;;;;;5041943;28;20508;-58
2023/01/24 11:18:17;;;;;;;3.38;2.17;;;20.00;54.40;;;;;;5038808;28;20497;-58
2023/01/24 11:20:44;;;;;;;4.18;2.28;;;20.00;54.40;;;;;;5051859;28;20048;-58
2023/01/24 11:23:21;;;;;;;5.72;2.20;;;20.00;54.40;;;;;;5051647;28;20087;-58
2023/01/24 11:26:03;;;;;;;3.47;2.10;;;20.00;54.30;;;;;;5051807;28;20051;-57
2023/01/24 11:28:37;;;;;;;4.53;2.20;;;20.00;54.30;;;;;;5052812;28;20048;-58
2023/01/24 11:31:14;;;;;;;5.25;2.05;;;20.00;54.30;;;;;;5048045;28;20048;-57
2023/01/24 11:34:11;;;;;;;3.53;1.83;;;20.00;54.20;;;;;;5052671;28;20507;-57
2023/01/24 11:37:01;;;;;;;4.80;2.00;;;20.00;54.10;;;;;;5031755;28;20060;-58
2023/01/24 11:39:54;;;;;;;5.03;2.10;;;20.00;54.20;;;;;;5029875;28;20563;-57
2023/01/24 11:42:47;;;;;;;3.28;2.03;;;20.00;54.10;;;;;;5032276;28;20041;-57
2023/01/24 11:45:50;;;;;;;3.28;1.92;;;20.00;54.00;;;;;;5031594;28;20050;-57
2023/01/24 11:48:19;;;;;;;3.95;1.95;;;20.00;54.10;;;;;;5033502;28;20045;-58
2023/01/24 11:50:50;;;;;;;3.88;2.20;;;19.90;54.10;;;;;;5032547;28;20098;-57
2023/01/24 11:53:32;;;;;;;3.85;2.30;;;19.90;54.10;;;;;;5031583;28;20408;-57
2023/01/24 11:56:10;;;;;;;3.47;2.17;;;19.90;54.10;;;;;;5032188;28;20057;-60
2023/01/24 11:58:50;;;;;;;4.53;2.25;;;19.90;54.10;;;;;;5046885;28;20045;-59
2023/01/24 12:01:16;;;;;;;4.43;2.22;;;19.90;54.20;;;;;;5050597;28;20044;-58
2023/01/24 12:04:13;;;;;;;4.18;2.10;;;19.90;54.20;;;;;;5052775;28;20049;-58
2023/01/24 12:06:44;;;;;;;4.07;2.03;;;19.90;54.30;;;;;;5050920;28;20519;-59
2023/01/24 12:09:20;;;;;;;3.85;2.20;;;19.90;54.30;;;;;;5052105;28;20056;-61
2023/01/24 12:12:16;;;;;;;8.85;2.88;;;19.90;54.30;;;;;;5043082;28;20396;-59
2023/01/24 12:14:58;;;;;;;5.68;2.38;;;19.90;54.50;;;;;;5039442;28;20420;-57
2023/01/24 12:17:47;;;;;;;7.85;3.25;;;19.90;54.60;;;;;;5050654;28;20037;-58
2023/01/24 12:20:21;;;;;;;7.07;2.80;;;19.90;54.50;;;;;;5050182;28;20052;-58
2023/01/24 12:22:46;;;;;;;7.80;3.05;;;19.90;54.50;;;;;;5050736;28;20107;-58
2023/01/24 12:25:27;;;;;;;7.18;3.00;;;19.90;54.50;;;;;;5050226;28;20037;-58
2023/01/24 12:27:53;;;;;;;8.25;3.00;;;19.90;54.60;;;;;;5049281;28;20493;-57
2023/01/24 12:30:28;;;;;;;8.00;3.15;;;19.90;54.60;;;;;;5050743;28;20121;-59
2023/01/24 12:33:02;;;;;;;8.50;3.03;;;19.90;54.60;;;;;;5050292;28;20049;-58
2023/01/24 12:35:41;;;;;;;7.20;3.15;;;19.90;54.60;;;;;;5026971;28;20389;-58
2023/01/24 12:38:24;;;;;;;6.20;2.67;;;19.90;54.60;;;;;;5053952;28;20049;-58
2023/01/24 12:41:12;;;;;;;9.35;3.10;;;19.90;54.70;;;;;;5049507;28;20094;-58
2023/01/24 12:44:14;;;;;;;5.90;2.90;;;19.90;54.60;;;;;;5039864;28;20121;-57
2023/01/24 12:47:11;;;;;;;7.93;3.00;;;19.90;54.60;;;;;;5049834;28;20548;-57
2023/01/24 12:50:04;;;;;;;7.93;3.45;;;19.90;54.70;;;;;;5033437;28;20095;-57
2023/01/24 12:52:40;;;;;;;6.68;2.97;;;19.90;54.70;;;;;;5050440;28;20049;-58
2023/01/24 12:55:21;;;;;;;7.25;2.90;;;19.90;54.70;;;;;;5049202;28;20044;-57
2023/01/24 12:58:14;;;;;;;7.07;3.28;;;19.90;54.70;;;;;;5066492;28;20049;-57
2023/01/24 13:00:58;;;;;;;7.75;3.22;;;19.90;54.70;;;;;;5061356;28;20060;-57
2023/01/24 13:03:41;;;;;;;7.07;2.80;;;19.90;54.50;;;;;;5050871;28;20545;-58
2023/01/24 13:06:16;;;;;;;6.97;2.65;;;19.90;54.60;;;;;;5048935;28;20056;-57
2023/01/24 13:08:50;;;;;;;6.28;3.00;;;19.90;54.50;;;;;;5049996;28;20080;-58
2023/01/24 13:11:23;;;;;;;6.25;2.90;;;19.90;54.60;;;;;;5032728;28;20045;-58
2023/01/24 13:14:04;;;;;;;8.30;3.05;;;20.00;54.60;;;;;;5049517;28;20037;-58
2023/01/24 13:16:36;;;;;;;7.00;2.92;;;19.90;54.50;;;;;;5050614;28;20145;-57
2023/01/24 13:19:38;;;;;;;5.85;2.88;;;20.00;54.60;;;;;;5047738;28;20045;-57
2023/01/24 13:22:23;;;;;;;6.38;2.45;;;20.00;54.50;;;;;;5051020;28;20072;-57
2023/01/24 13:25:00;;;;;;;6.93;3.28;;;20.00;54.40;;;;;;5050615;28;20045;-57
2023/01/24 13:27:52;;;;;;;6.45;3.05;;;20.00;54.40;;;;;;5051369;28;20392;-57
2023/01/24 13:30:38;;;;;;;7.03;2.63;;;20.00;54.50;;;;;;5050409;28;20447;-58
2023/01/24 13:33:04;;;;;;;4.90;2.60;;;20.00;54.40;;;;;;5059799;28;20127;-59
2023/01/24 13:35:30;;;;;;;5.45;2.50;;;19.90;54.30;;;;;;5070400;28;20128;-58
2023/01/24 13:38:08;;;;;;;5.55;2.60;;;20.00;54.30;;;;;;5070636;28;20072;-58
2023/01/24 13:40:36;;;;;;;5.75;2.60;;;20.00;54.30;;;;;;5070366;28;20040;-58
2023/01/24 13:43:03;;;;;;;5.38;2.72;;;20.00;54.60;;;;;;5071308;28;20064;-60
2023/01/24 13:45:34;;;;;;;4.05;2.35;;;20.00;54.30;;;;;;5069456;28;20036;-58
2023/01/24 13:48:00;;;;;;;7.32;2.55;;;20.00;54.30;;;;;;5063416;28;20045;-58